Time;durP1;ratioP1;P1;durP2;ratioP2;P2;SDS_P1;SDS_P2;PMS_P1;PMS_P2;Temp;Humidity;BMP_temperature;BMP_pressure;BME280_temperature;BME280_humidity;BME280_pressure;Samples;Min_cycle;Max_cycle;Signal;HPM_P1;HPM_P2
2022/12/12 00:02:07;;;;;;;;;35.50;32.00;;;;;0.07;100.00;98390.63;6313643;20;2849334;-58
2022/12/12 00:04:35;;;;;;;;;26.50;26.00;;;;;0.02;100.00;98388.19;6280760;20;2500301;-59
2022/12/12 00:07:03;;;;;;;;;30.00;26.00;;;;;0.04;100.00;98391.63;6279702;20;2500306;-58
2022/12/12 00:09:31;;;;;;;;;35.00;30.00;;;;;0.02;100.00;98393.47;6279016;20;2855500;-58
2022/12/12 00:11:59;;;;;;;;;41.50;33.50;;;;;-0.17;100.00;98395.13;6284986;20;2853384;-59
2022/12/12 00:14:28;;;;;;;;;43.00;30.50;;;;;-0.01;100.00;98404.13;6280521;20;2862892;-59
2022/12/12 00:16:57;;;;;;;;;38.00;28.50;;;;;-0.11;100.00;98397.50;6282991;20;2869029;-60
2022/12/12 00:19:25;;;;;;;;;39.50;34.00;;;;;-0.02;100.00;98386.59;6282974;20;2858636;-59
2022/12/12 00:21:54;;;;;;;;;39.00;30.50;;;;;-0.09;100.00;98396.53;6279887;20;2863892;-58
2022/12/12 00:24:22;;;;;;;;;37.00;26.00;;;;;-0.27;100.00;98397.25;6278517;20;2500407;-59
2022/12/12 00:26:50;;;;;;;;;33.50;29.00;;;;;0.06;100.00;98399.50;6279271;20;2853435;-58
2022/12/12 00:29:18;;;;;;;;;48.50;34.00;;;;;-0.02;100.00;98407.72;6282403;20;2869122;-59
2022/12/12 00:31:48;;;;;;;;;43.33;33.33;;;;;0.07;100.00;98412.59;6280725;20;2875273;-58
2022/12/12 00:34:16;;;;;;;;;37.50;22.00;;;;;-0.07;100.00;98409.66;6312856;20;3533720;-58
2022/12/12 00:36:46;;;;;;;;;41.33;34.67;;;;;-0.09;100.00;98417.63;6311440;20;2867949;-58
2022/12/12 00:39:14;;;;;;;;;37.00;26.00;;;;;-0.05;100.00;98428.94;6307697;20;2500305;-58
2022/12/12 00:41:45;;;;;;;;;36.00;30.00;;;;;0.00;100.00;98434.91;6276221;20;2500284;-59
2022/12/12 00:44:14;;;;;;;;;40.00;26.50;;;;;-0.01;100.00;98435.81;6283490;20;2863813;-59
2022/12/12 00:46:43;;;;;;;;;40.00;30.00;;;;;-0.07;100.00;98436.03;6278552;20;2868056;-58
2022/12/12 00:49:12;;;;;;;;;43.50;34.50;;;;;-0.26;100.00;98431.47;6277641;20;2500376;-59
2022/12/12 00:51:42;;;;;;;;;36.33;30.00;;;;;-0.11;100.00;98440.56;6278725;20;3593159;-60
2022/12/12 00:54:10;;;;;;;;;33.00;28.00;;;;;-0.12;100.00;98440.63;6281536;20;2855545;-59
2022/12/12 00:56:40;;;;;;;;;40.00;28.00;;;;;-0.13;100.00;98436.25;6277298;20;2867023;-59
2022/12/12 00:59:08;;;;;;;;;35.00;32.50;;;;;-0.23;100.00;98426.06;6277826;20;2858017;-59
2022/12/12 01:01:36;;;;;;;;;32.50;31.50;;;;;-0.32;100.00;98418.50;6278019;20;2854471;-58
2022/12/12 01:04:05;;;;;;;;;39.50;32.00;;;;;-0.48;100.00;98426.13;6279318;20;2867105;-59
2022/12/12 01:06:33;;;;;;;;;37.00;30.00;;;;;-0.57;100.00;98420.38;6276876;20;2500348;-59
2022/12/12 01:09:01;;;;;;;;;32.50;27.00;;;;;-0.31;100.00;98427.31;6278513;20;2500347;-59
2022/12/12 01:11:29;;;;;;;;;40.50;32.50;;;;;-0.45;100.00;98425.16;6277203;20;2500410;-59
2022/12/12 01:13:57;;;;;;;;;34.00;32.00;;;;;-0.22;100.00;98427.78;6278603;20;2500285;-59
2022/12/12 01:16:26;;;;;;;;;33.00;28.50;;;;;-0.32;100.00;98421.13;6280014;20;2500371;-59
2022/12/12 01:18:54;;;;;;;;;30.00;26.50;;;;;-0.24;100.00;98419.09;6274162;20;2500299;-59
2022/12/12 01:21:23;;;;;;;;;34.00;29.00;;;;;-0.29;100.00;98420.16;6279582;20;2500415;-59
2022/12/12 01:23:51;;;;;;;;;30.33;25.33;;;;;-0.37;100.00;98417.84;6278247;20;3571170;-59
2022/12/12 01:26:23;;;;;;;;;36.00;25.00;;;;;-0.31;100.00;98407.06;6278812;20;3596091;-58
2022/12/12 01:28:52;;;;;;;;;39.00;32.50;;;;;-0.20;100.00;98419.84;6272661;20;2500328;-59
2022/12/12 01:31:21;;;;;;;;;35.00;28.00;;;;;-0.34;100.00;98409.81;6273978;20;2500300;-58
2022/12/12 01:33:49;;;;;;;;;32.00;28.00;;;;;-0.50;100.00;98411.28;6273815;20;2498212;-59
2022/12/12 01:36:20;;;;;;;;;37.00;25.50;;;;;-0.54;100.00;98414.97;6273051;20;2500367;-59
2022/12/12 01:38:53;;;;;;;;;35.00;29.00;;;;;-0.32;100.00;98415.88;6276339;20;2500304;-58
2022/12/12 01:41:21;;;;;;;;;36.00;25.50;;;;;-0.33;100.00;98408.03;6271377;20;2500413;-59
2022/12/12 01:43:50;;;;;;;;;40.00;29.50;;;;;-0.33;100.00;98408.03;6281974;20;2870103;-58
2022/12/12 01:46:24;;;;;;;;;35.00;30.50;;;;;-0.42;100.00;98408.38;6277423;20;2862822;-59
2022/12/12 01:49:06;;;;;;;;;35.50;33.00;;;;;-0.51;100.00;98393.75;6278610;20;2863909;-58
2022/12/12 01:51:33;;;;;;;;;34.00;30.00;;;;;-0.39;100.00;98392.47;6276084;20;2500281;-59
2022/12/12 01:54:23;;;;;;;;;37.67;26.33;;;;;-0.39;100.00;98388.03;6276018;20;2869075;-59
2022/12/12 01:56:56;;;;;;;;;29.00;27.00;;;;;-0.50;100.00;98393.72;6306048;20;2491992;-58
2022/12/12 01:59:26;;;;;;;;;27.67;25.33;;;;;-0.57;100.00;98388.72;6281866;20;3557607;-59
2022/12/12 02:01:55;;;;;;;;;34.00;28.50;;;;;-0.65;100.00;98390.78;6280867;20;2841958;-58
2022/12/12 02:04:26;;;;;;;;;30.33;21.33;;;;;-0.54;100.00;98389.47;6281959;20;3587034;-60
2022/12/12 02:06:56;;;;;;;;;28.50;27.00;;;;;-0.46;100.00;98391.81;6280663;20;2844061;-59
2022/12/12 02:09:26;;;;;;;;;35.33;28.00;;;;;-0.72;100.00;98387.50;6276826;20;3600867;-59
2022/12/12 02:11:57;;;;;;;;;32.67;27.00;;;;;-0.68;100.00;98394.41;6281612;20;3586744;-59
2022/12/12 02:14:37;;;;;;;;;34.67;26.00;;;;;-0.63;100.00;98394.22;6316600;20;3586705;-59
2022/12/12 02:17:52;;;;;;;;;36.50;25.50;;;;;-0.75;100.00;98406.06;6311852;20;2500973;-59
2022/12/12 02:21:14;;;;;;;;;30.00;26.00;;;;;-0.80;100.00;98414.13;6282300;20;3588828;-59
2022/12/12 02:24:46;;;;;;;;;29.50;24.00;;;;;-0.82;100.00;98420.38;6281564;20;2500353;-60
2022/12/12 02:27:50;;;;;;;;;38.67;28.00;;;;;-0.95;100.00;98419.97;6283829;20;2874360;-59
2022/12/12 02:30:42;;;;;;;;;26.00;24.00;;;;;-0.92;100.00;98427.78;6310403;20;2832596;-58
2022/12/12 02:33:40;;;;;;;;;29.33;24.00;;;;;-0.89;100.00;98425.03;6283288;20;3566945;-59
2022/12/12 02:36:55;;;;;;;;;24.33;19.00;;;;;-0.96;100.00;98424.38;6313470;20;3570471;-59
2022/12/12 02:39:48;;;;;;;;;32.00;28.00;;;;;-0.91;100.00;98414.53;6312862;20;2846241;-57
2022/12/12 02:42:43;;;;;;;;;35.00;30.50;;;;;-0.82;100.00;98415.97;6281670;20;2500348;-58
2022/12/12 02:45:39;;;;;;;;;41.50;30.00;;;;;-0.90;100.00;98413.59;6283650;20;2864025;-59
2022/12/12 02:48:29;;;;;;;;;32.00;29.00;;;;;-0.97;100.00;98422.66;6275308;20;3592271;-59
2022/12/12 02:51:03;;;;;;;;;21.33;21.00;;;;;-0.96;100.00;98423.50;6280861;20;3558737;-59
2022/12/12 02:53:31;;;;;;;;;25.00;24.50;;;;;-0.96;100.00;98423.50;6278585;20;2500845;-59
2022/12/12 02:56:44;;;;;;;;;37.50;23.00;;;;;-1.01;100.00;98426.31;6279693;20;2500504;-60
2022/12/12 02:59:22;;;;;;;;;40.67;28.00;;;;;-1.04;100.00;98415.03;6280939;20;3608602;-59
2022/12/12 03:02:31;;;;;;;;;39.00;30.00;;;;;-0.91;100.00;98421.59;6280886;20;2875662;-60
2022/12/12 03:09:06;;;;;;;;;31.50;24.00;;;;;-0.85;99.80;98420.50;6282443;20;2848222;-59
2022/12/12 03:12:06;;;;;;;;;32.00;24.67;;;;;-0.82;99.82;98410.69;6278524;20;3585700;-60
2022/12/12 03:15:01;;;;;;;;;18.00;16.00;;;;;-0.85;99.31;98409.97;6282311;20;2814878;-59
2022/12/12 03:18:12;;;;;;;;;28.00;22.67;;;;;-0.81;98.99;98427.38;6281524;20;3565988;-59
2022/12/12 03:21:09;;;;;;;;;32.00;27.00;;;;;-0.90;98.98;98428.56;6309238;20;2496060;-59
2022/12/12 03:23:47;;;;;;;;;28.00;21.33;;;;;-0.74;98.59;98437.66;6283651;20;3570041;-58
2022/12/12 03:26:42;;;;;;;;;25.33;22.00;;;;;-0.75;98.16;98438.56;6313676;20;3571122;-59
2022/12/12 03:29:40;;;;;;;;;31.33;24.33;;;;;-0.79;97.89;98442.22;6313393;20;3572275;-59
2022/12/12 03:32:18;;;;;;;;;31.50;24.50;;;;;-0.73;97.17;98447.28;6310603;20;2500291;-59
2022/12/12 03:35:09;;;;;;;;;37.00;32.50;;;;;-0.73;97.05;98449.91;6281013;20;2500339;-58
2022/12/12 03:37:53;;;;;;;;;39.00;27.67;;;;;-0.77;96.75;98432.47;6282070;20;2872181;-60
2022/12/12 03:40:38;;;;;;;;;36.00;32.67;;;;;-0.76;97.34;98460.56;6309251;20;3578603;-58
2022/12/12 03:43:38;;;;;;;;;35.00;31.67;;;;;-0.94;96.81;98463.84;6281921;20;3593997;-60
2022/12/12 03:46:31;;;;;;;;;26.67;22.00;;;;;-0.62;97.05;98453.94;6278087;20;3554554;-60
2022/12/12 03:49:31;;;;;;;;;22.33;16.67;;;;;-0.70;96.91;98456.84;6279316;20;3557678;-59
2022/12/12 03:52:14;;;;;;;;;24.00;19.00;;;;;-0.69;96.42;98459.41;6309804;20;2815931;-59
2022/12/12 03:55:00;;;;;;;;;43.00;29.00;;;;;-0.71;96.64;98471.81;6279862;20;2869019;-59
2022/12/12 03:57:44;;;;;;;;;29.00;27.50;;;;;-0.92;97.66;98470.78;6281649;20;2850340;-59
2022/12/12 04:00:15;;;;;;;;;31.00;27.50;;;;;-0.88;98.21;98471.53;6277832;20;2852441;-59
2022/12/12 04:03:05;;;;;;;;;22.67;18.67;;;;;-0.88;98.31;98476.78;6282891;20;3563844;-60
2022/12/12 04:16:03;;;;;;;;;34.50;27.00;;;;;-1.03;99.47;98488.72;6308193;20;2500474;-59
2022/12/12 04:18:52;;;;;;;;;24.00;23.33;;;;;-0.98;99.06;98492.03;6278106;20;3569247;-59
2022/12/12 04:25:00;;;;;;;;;26.00;22.67;;;;;-1.28;99.34;98483.41;6280787;20;3571118;-58
2022/12/12 04:27:36;;;;;;;;;44.00;34.50;;;;;-1.21;99.83;98487.59;6311066;20;2866930;-59
2022/12/12 04:30:11;;;;;;;;;43.00;36.50;;;;;-1.30;99.17;98501.03;6273760;20;2500479;-60
2022/12/12 04:33:05;;;;;;;;;47.50;38.50;;;;;-1.14;99.09;98501.38;6276113;20;2502385;-60
2022/12/12 04:35:43;;;;;;;;;54.00;41.00;;;;;-1.08;98.66;98490.63;6280706;20;2887910;-59
2022/12/12 04:38:23;;;;;;;;;41.50;38.00;;;;;-1.19;98.88;98483.09;6311811;20;2871128;-59
2022/12/12 04:40:56;;;;;;;;;42.50;32.50;;;;;-1.21;99.46;98477.03;6272788;20;2500287;-60
2022/12/12 04:43:32;;;;;;;;;53.50;38.50;;;;;-1.42;99.29;98483.00;6279966;20;2878479;-59
2022/12/12 04:46:18;;;;;;;;;44.67;32.67;;;;;-1.17;99.14;98493.59;6276736;20;2877489;-59
2022/12/12 04:48:56;;;;;;;;;50.50;39.00;;;;;-1.13;98.62;98492.59;6304298;20;2874303;-59
2022/12/12 04:51:43;;;;;;;;;42.50;38.50;;;;;-1.22;98.30;98495.53;6275604;20;2864923;-60
2022/12/12 04:54:26;;;;;;;;;35.50;31.00;;;;;-1.25;98.08;98500.88;6279982;20;2853404;-61
2022/12/12 04:57:00;;;;;;;;;41.00;33.50;;;;;-1.35;97.62;98495.06;6278897;20;2500553;-58
2022/12/12 04:59:29;;;;;;;;;38.50;28.00;;;;;-1.30;97.50;98503.66;6274709;20;2500292;-60
2022/12/12 05:02:31;;;;;;;;;38.00;35.00;;;;;-1.43;96.46;98494.44;6278993;20;2851360;-57
2022/12/12 05:05:17;;;;;;;;;39.50;36.00;;;;;-1.38;96.03;98510.97;6280528;20;2850321;-59
2022/12/12 05:08:02;;;;;;;;;45.00;33.50;;;;;-1.38;96.22;98510.97;6281349;20;2862917;-59
2022/12/12 05:10:31;;;;;;;;;51.00;39.50;;;;;-1.61;96.33;98509.06;6275729;20;2864042;-59
2022/12/12 05:13:00;;;;;;;;;42.50;36.50;;;;;-1.72;96.15;98509.38;6275144;20;2500297;-59
2022/12/12 05:15:29;;;;;;;;;44.50;30.00;;;;;-1.59;95.73;98505.47;6278791;20;2882632;-59
2022/12/12 05:18:10;;;;;;;;;46.00;34.00;;;;;-1.65;95.23;98523.22;6275665;20;2872199;-59
2022/12/12 05:20:38;;;;;;;;;50.00;30.00;;;;;-1.57;95.74;98519.44;6279132;20;2871103;-59
2022/12/12 05:23:07;;;;;;;;;31.67;22.33;;;;;-1.74;94.67;98524.34;6277535;20;3577352;-59
2022/12/12 05:25:35;;;;;;;;;46.50;35.50;;;;;-1.57;95.18;98537.88;6274542;20;2500433;-57
2022/12/12 05:28:04;;;;;;;;;36.00;23.67;;;;;-1.65;95.06;98531.97;6280195;20;3589947;-59
2022/12/12 05:30:32;;;;;;;;;37.00;31.50;;;;;-1.64;94.60;98531.06;6276409;20;2500363;-59
2022/12/12 05:33:01;;;;;;;;;49.67;35.00;;;;;-1.84;95.17;98521.16;6276275;20;3625271;-60
2022/12/12 05:35:29;;;;;;;;;40.00;29.00;;;;;-1.68;94.95;98523.31;6279713;20;2847276;-60
2022/12/12 05:37:59;;;;;;;;;37.33;30.67;;;;;-1.71;94.42;98533.91;6279675;20;3603400;-61
2022/12/12 05:40:27;;;;;;;;;39.50;28.00;;;;;-1.76;94.27;98531.47;6274016;20;2847262;-61
2022/12/12 05:42:55;;;;;;;;;44.00;35.50;;;;;-1.71;94.26;98529.53;6271847;20;2500468;-60
2022/12/12 05:45:24;;;;;;;;;44.00;33.00;;;;;-1.70;94.57;98536.53;6278369;20;2856695;-61
2022/12/12 05:47:52;;;;;;;;;48.33;27.00;;;;;-1.77;93.46;98540.22;6275721;20;2879434;-60
2022/12/12 05:50:20;;;;;;;;;31.00;31.00;;;;;-1.76;93.23;98536.72;6299833;20;2492058;-61
2022/12/12 05:52:49;;;;;;;;;38.00;25.67;;;;;-1.81;92.79;98533.38;6275654;20;3595095;-60
2022/12/12 05:55:17;;;;;;;;;39.67;30.00;;;;;-1.84;93.10;98539.56;6275204;20;2859663;-59
2022/12/12 05:57:45;;;;;;;;;43.00;39.00;;;;;-1.86;93.78;98533.50;6309016;20;2500313;-59
2022/12/12 06:00:13;;;;;;;;;45.50;29.50;;;;;-1.94;92.70;98538.13;6271790;20;2862866;-60
2022/12/12 06:02:42;;;;;;;;;45.00;36.00;;;;;-1.95;92.06;98540.78;6278652;20;2858620;-60
2022/12/12 06:05:10;;;;;;;;;48.00;35.00;;;;;-1.75;92.26;98548.94;6274689;20;2500323;-60
2022/12/12 06:07:38;;;;;;;;;34.50;31.00;;;;;-2.05;91.18;98534.97;6280411;20;2856630;-60
2022/12/12 06:10:08;;;;;;;;;40.00;33.00;;;;;-1.99;90.72;98546.13;6278210;20;2851901;-59
2022/12/12 06:12:36;;;;;;;;;37.50;33.00;;;;;-2.08;90.31;98549.06;6280355;20;2845087;-59
2022/12/12 06:15:05;;;;;;;;;39.00;32.50;;;;;-1.90;90.72;98554.66;6279736;20;2500417;-60
2022/12/12 06:17:33;;;;;;;;;38.50;32.50;;;;;-2.03;90.02;98560.31;6275810;20;2500725;-60
2022/12/12 06:20:03;;;;;;;;;24.67;23.33;;;;;-1.96;89.61;98565.38;6279264;20;3572159;-61
2022/12/12 06:22:33;;;;;;;;;34.00;29.50;;;;;-1.95;90.19;98567.09;6275896;20;2500287;-60
2022/12/12 06:25:02;;;;;;;;;55.50;43.00;;;;;-2.13;89.43;98577.25;6279066;20;2500316;-60
2022/12/12 06:27:30;;;;;;;;;40.33;31.00;;;;;-2.07;89.51;98569.16;6279927;20;3608597;-61
2022/12/12 06:29:59;;;;;;;;;33.00;19.33;;;;;-2.12;89.01;98571.06;6278358;20;3586791;-59
2022/12/12 06:32:28;;;;;;;;;45.00;36.50;;;;;-2.17;88.73;98572.97;6311565;20;2854493;-59
2022/12/12 06:34:55;;;;;;;;;48.50;42.50;;;;;-2.02;89.17;98577.78;6279834;20;2500418;-61
2022/12/12 06:37:24;;;;;;;;;35.00;27.67;;;;;-2.08;89.11;98583.25;6281076;20;3603461;-62
2022/12/12 06:39:52;;;;;;;;;35.00;28.00;;;;;-2.13;88.72;98579.88;6277993;20;2843021;-61
2022/12/12 06:42:21;;;;;;;;;46.00;32.50;;;;;-2.22;88.96;98586.22;6280175;20;2877411;-61
2022/12/12 06:44:49;;;;;;;;;27.00;26.00;;;;;-2.23;89.07;98584.53;6283971;20;3565301;-59
2022/12/12 06:47:18;;;;;;;;;35.67;32.00;;;;;-2.33;89.04;98587.44;6316100;20;3588909;-61
2022/12/12 06:49:47;;;;;;;;;40.33;32.33;;;;;-2.19;89.11;98590.53;6313513;20;2865944;-61
2022/12/12 06:52:15;;;;;;;;;46.67;36.00;;;;;-2.22;89.47;98593.25;6314231;20;2872311;-59
2022/12/12 06:54:45;;;;;;;;;48.33;32.67;;;;;-2.21;89.03;98605.53;6315146;20;2872209;-61
2022/12/12 06:57:13;;;;;;;;;41.50;28.50;;;;;-2.43;89.11;98607.84;6313712;20;2858598;-60
2022/12/12 06:59:40;;;;;;;;;48.50;39.00;;;;;-2.23;90.31;98600.28;6281633;20;2500278;-60
2022/12/12 07:02:11;;;;;;;;;41.00;32.00;;;;;-2.29;89.28;98610.09;6282347;20;2500252;-61
2022/12/12 07:04:39;;;;;;;;;52.50;33.50;;;;;-2.27;88.44;98603.91;6279559;20;2500328;-60
2022/12/12 07:07:06;;;;;;;;;45.00;32.00;;;;;-2.09;88.97;98612.19;6283279;20;2868100;-61
2022/12/12 07:09:37;;;;;;;;;31.50;17.67;;;;;-2.01;89.78;98603.19;6305976;20;2854671;-60
2022/12/12 07:12:05;;;;;;;;;30.33;23.67;;;;;-2.05;87.56;98611.22;6316728;20;3563797;-62
2022/12/12 07:14:36;;;;;;;;;40.00;32.67;;;;;-2.12;87.07;98618.41;6281668;20;3605578;-60
2022/12/12 07:17:04;;;;;;;;;35.00;27.50;;;;;-2.17;86.93;98632.59;6283750;20;2855585;-59
2022/12/12 07:19:32;;;;;;;;;42.00;32.50;;;;;-2.13;87.63;98629.84;6282192;20;2500282;-59
2022/12/12 07:22:02;;;;;;;;;21.40;17.80;;;;;-1.88;86.43;98637.03;6308063;20;2828417;-60
2022/12/12 07:24:37;;;;;;;;;46.00;35.50;;;;;-1.89;86.55;98648.47;6280857;20;2500288;-59
2022/12/12 07:27:06;;;;;;;;;34.00;29.00;;;;;-1.56;86.05;98657.16;6285102;20;3579451;-60
2022/12/12 07:29:34;;;;;;;;;28.50;15.00;;;;;-1.68;85.49;98650.50;6283362;20;2820131;-61
2022/12/12 07:32:03;;;;;;;;;48.00;38.50;;;;;-1.85;86.47;98650.94;6284977;20;2868020;-60
2022/12/12 07:34:31;;;;;;;;;36.50;28.50;;;;;-1.83;86.38;98650.91;6283207;20;2500264;-60
2022/12/12 07:36:59;;;;;;;;;40.00;33.00;;;;;-1.75;86.51;98648.06;6281484;20;2500292;-60
2022/12/12 07:39:31;;;;;;;;;35.50;30.00;;;;;-1.80;85.86;98648.19;6279636;20;2487824;-60
2022/12/12 07:42:00;;;;;;;;;39.50;32.00;;;;;-1.84;86.67;98649.22;6282281;20;2869057;-60
2022/12/12 07:44:28;;;;;;;;;48.00;43.00;;;;;-1.51;86.08;98654.38;6285917;20;2861723;-61
2022/12/12 07:46:58;;;;;;;;;43.00;27.00;;;;;-1.53;87.24;98653.56;6283401;20;2870061;-61
2022/12/12 07:49:28;;;;;;;;;34.67;27.00;;;;;-1.69;85.91;98655.78;6281622;20;3597154;-61
2022/12/12 07:51:57;;;;;;;;;43.50;28.00;;;;;-1.59;85.27;98651.97;6281340;20;2868087;-61
2022/12/12 07:54:25;;;;;;;;;37.00;34.00;;;;;-1.36;85.71;98659.22;6286291;20;2840925;-61
2022/12/12 07:56:53;;;;;;;;;44.50;35.50;;;;;-1.26;85.11;98663.28;6285055;20;2854433;-60
2022/12/12 07:59:21;;;;;;;;;32.50;27.00;;;;;-1.40;84.68;98665.47;6281347;20;2500388;-61
2022/12/12 08:01:49;;;;;;;;;42.00;35.00;;;;;-1.29;83.81;98667.75;6277906;20;2500334;-61
2022/12/12 08:04:17;;;;;;;;;44.00;33.00;;;;;-1.47;84.58;98658.66;6279436;20;2500304;-60
2022/12/12 08:06:45;;;;;;;;;33.50;23.50;;;;;-1.64;84.02;98667.03;6280923;20;2838878;-60
2022/12/12 08:09:13;;;;;;;;;32.50;23.00;;;;;-1.31;85.18;98662.56;6277911;20;2845141;-60
2022/12/12 08:11:40;;;;;;;;;44.00;36.50;;;;;-1.37;84.46;98668.00;6276949;20;2500332;-60
2022/12/12 08:14:13;;;;;;;;;34.50;24.00;;;;;-1.53;84.19;98669.34;6281132;20;2840913;-60
2022/12/12 08:16:41;;;;;;;;;32.00;28.67;;;;;-1.49;83.77;98681.53;6283737;20;3579526;-60
2022/12/12 08:19:10;;;;;;;;;32.50;27.50;;;;;-1.47;82.99;98672.69;6274771;20;2500296;-60
2022/12/12 08:21:39;;;;;;;;;37.00;29.00;;;;;-1.39;82.30;98677.72;6279623;20;2848245;-60
2022/12/12 08:24:10;;;;;;;;;41.33;27.00;;;;;-1.44;82.69;98674.38;6279959;20;3603429;-59
2022/12/12 08:26:39;;;;;;;;;32.00;24.33;;;;;-1.52;81.54;98671.97;6279799;20;3588804;-60
2022/12/12 08:29:07;;;;;;;;;39.50;30.50;;;;;-1.36;82.35;98686.38;6284089;20;2851382;-60
2022/12/12 08:31:38;;;;;;;;;36.00;27.00;;;;;-1.22;82.01;98685.97;6284645;20;3575376;-60
2022/12/12 08:34:07;;;;;;;;;37.67;32.33;;;;;-1.31;81.58;98691.53;6280440;20;3603504;-58
2022/12/12 08:36:36;;;;;;;;;45.00;31.50;;;;;-1.05;82.08;98703.03;6280335;20;2865694;-59
2022/12/12 08:39:14;;;;;;;;;37.50;32.00;;;;;-0.89;81.64;98705.16;6282776;20;2852459;-59
2022/12/12 08:41:49;;;;;;;;;33.33;29.33;;;;;-0.99;81.90;98708.97;6283176;20;3600489;-59
2022/12/12 08:44:20;;;;;;;;;40.50;32.00;;;;;-0.91;81.09;98714.88;6276851;20;2500413;-59
2022/12/12 08:46:49;;;;;;;;;48.00;38.00;;;;;-0.65;81.07;98713.22;6282139;20;2877734;-59
2022/12/12 08:49:18;;;;;;;;;31.00;27.00;;;;;-0.56;80.18;98714.69;6280169;20;2846124;-58
2022/12/12 08:51:46;;;;;;;;;27.67;18.33;;;;;-0.70;78.56;98729.16;6283795;20;3587795;-59
2022/12/12 08:54:14;;;;;;;;;45.00;38.50;;;;;-0.64;79.24;98716.69;6307494;20;2500418;-59
2022/12/12 08:56:43;;;;;;;;;39.67;29.67;;;;;-0.65;78.53;98720.25;6282720;20;3608588;-54
2022/12/12 08:59:12;;;;;;;;;32.50;29.50;;;;;-0.62;77.70;98725.44;6279872;20;2500306;-62
2022/12/12 09:01:40;;;;;;;;;43.00;35.50;;;;;-0.57;78.36;98726.16;6278833;20;2500380;-57
2022/12/12 09:04:08;;;;;;;;;27.67;22.00;;;;;-0.58;76.74;98725.28;6280042;20;3564909;-60
2022/12/12 09:06:37;;;;;;;;;30.00;25.33;;;;;-0.51;77.44;98725.94;6310982;20;3562888;-59
2022/12/12 09:09:05;;;;;;;;;31.50;25.50;;;;;-0.56;77.00;98727.84;6277437;20;2500334;-59
2022/12/12 09:11:32;;;;;;;;;39.00;32.00;;;;;-0.59;77.11;98731.44;6279163;20;2858007;-59
2022/12/12 09:14:01;;;;;;;;;27.67;22.33;;;;;-0.37;76.23;98729.00;6280077;20;3575335;-58
2022/12/12 09:16:29;;;;;;;;;31.00;26.00;;;;;-0.43;75.59;98729.19;6276387;20;2500393;-59
2022/12/12 09:18:58;;;;;;;;;20.00;15.67;;;;;-0.54;74.79;98726.03;6284197;20;3538919;-59
2022/12/12 09:21:26;;;;;;;;;21.00;21.00;;;;;-0.13;75.32;98724.69;6315442;20;2825321;-59
2022/12/12 09:23:55;;;;;;;;;28.33;25.00;;;;;-0.38;75.48;98711.44;6281578;20;3557536;-59
2022/12/12 09:26:23;;;;;;;;;36.33;25.67;;;;;-0.17;76.67;98725.69;6308868;20;3595130;-59
2022/12/12 09:28:51;;;;;;;;;29.00;25.00;;;;;0.00;74.68;98725.13;6309664;20;2500313;-58
2022/12/12 09:31:20;;;;;;;;;40.50;34.50;;;;;0.44;75.92;98728.81;6283205;20;2837785;-58
2022/12/12 09:33:49;;;;;;;;;33.67;25.67;;;;;0.22;75.16;98735.81;6281144;20;3585648;-59
2022/12/12 09:36:18;;;;;;;;;37.00;28.00;;;;;0.24;76.11;98741.91;6280181;20;2869069;-58
2022/12/12 09:38:46;;;;;;;;;27.50;23.00;;;;;0.05;75.38;98741.63;6284436;20;2835736;-58
2022/12/12 09:41:25;;;;;;;;;42.00;36.00;;;;;0.25;75.34;98732.19;6276634;20;2500368;-59
2022/12/12 09:44:06;;;;;;;;;31.00;27.00;;;;;0.43;74.47;98732.38;6281479;20;2858643;-58
2022/12/12 09:46:48;;;;;;;;;28.33;23.00;;;;;0.38;73.83;98741.41;6278469;20;3571127;-59
2022/12/12 09:49:46;;;;;;;;;28.33;25.00;;;;;-0.16;72.99;98731.81;6276673;20;3567080;-58
2022/12/12 09:52:34;;;;;;;;;36.50;30.00;;;;;-0.11;73.59;98745.72;6274400;20;2864857;-59
2022/12/12 09:55:20;;;;;;;;;33.00;26.00;;;;;-0.04;74.62;98731.41;6275261;20;2500423;-56
2022/12/12 09:58:44;;;;;;;;;40.50;35.50;;;;;-0.08;74.07;98732.41;6280925;20;2500287;-57
2022/12/12 10:01:47;;;;;;;;;41.50;35.00;;;;;-0.04;75.62;98739.34;6278157;20;2849232;-59
2022/12/12 10:08:29;;;;;;;;;22.00;19.50;;;;;-0.56;74.73;98741.03;6306858;20;2841985;-58
2022/12/12 10:11:48;;;;;;;;;35.50;29.00;;;;;-0.19;74.79;98731.94;6276925;20;2500815;-54
2022/12/12 10:14:02;;;;;;;;;17.80;15.20;;;;;-0.03;74.89;98741.03;6295175;20;2820061;-59
2022/12/12 10:16:32;;;;;;;;;26.00;19.00;;;;;-0.48;75.89;98741.66;6281186;20;2835692;-59
2022/12/12 10:19:19;;;;;;;;;32.83;26.17;;;;;-0.59;74.51;98743.78;6308220;20;2846278;-58
2022/12/12 10:21:52;;;;;;;;;37.50;29.00;;;;;-0.15;74.28;98738.84;6316853;20;2852427;-56
2022/12/12 10:24:39;;;;;;;;;32.33;22.67;;;;;-0.07;73.28;98744.72;6283988;20;3594021;-57
2022/12/12 10:27:13;;;;;;;;;32.00;26.00;;;;;0.17;74.69;98753.56;6283355;20;2500329;-56
2022/12/12 10:29:47;;;;;;;;;34.33;27.67;;;;;0.28;73.46;98763.75;6287707;20;3598176;-58
2022/12/12 10:32:53;;;;;;;;;38.00;29.00;;;;;0.46;74.21;98757.81;6284629;20;2500320;-59
2022/12/12 10:35:50;;;;;;;;;36.50;27.00;;;;;0.08;72.85;98757.41;6282828;20;2864979;-58
2022/12/12 10:39:07;;;;;;;;;34.50;26.00;;;;;0.41;72.35;98750.06;6284376;20;2858694;-58
2022/12/12 10:42:06;;;;;;;;;27.00;19.50;;;;;0.44;72.25;98749.09;6288194;20;2840973;-58
2022/12/12 10:45:21;;;;;;;;;30.50;27.50;;;;;0.71;72.44;98746.38;6280761;20;2500246;-59
2022/12/12 10:47:49;;;;;;;;;16.00;16.00;;;;;0.33;73.06;98745.97;6286538;20;3535733;-58
2022/12/12 10:50:43;;;;;;;;;30.00;20.50;;;;;0.74;72.77;98744.50;6284861;20;2842077;-59
2022/12/12 10:53:12;;;;;;;;;30.50;19.00;;;;;0.63;73.21;98739.59;6284698;20;2860665;-58
2022/12/12 10:55:54;;;;;;;;;29.67;21.00;;;;;0.90;71.65;98747.44;6281610;20;3576339;-58
2022/12/12 10:58:34;;;;;;;;;31.00;22.00;;;;;1.00;72.24;98754.09;6290189;20;2837772;-56
2022/12/12 11:01:29;;;;;;;;;37.00;30.50;;;;;0.90;71.93;98752.72;6283430;20;2860738;-59
2022/12/12 11:04:19;;;;;;;;;31.00;23.00;;;;;1.22;71.47;98750.63;6284121;20;3574354;-56
2022/12/12 11:06:53;;;;;;;;;18.00;14.00;;;;;1.01;70.87;98750.53;6316242;20;2810869;-59
2022/12/12 11:09:27;;;;;;;;;22.00;12.00;;;;;1.30;72.23;98762.63;6283852;20;2815997;-58
2022/12/12 11:12:08;;;;;;;;;23.33;23.00;;;;;0.61;71.20;98762.56;6278852;20;3576496;-58
2022/12/12 11:14:50;;;;;;;;;22.50;20.50;;;;;0.63;72.33;98760.75;6287536;20;2814982;-57
2022/12/12 11:17:30;;;;;;;;;28.00;20.67;;;;;0.48;71.87;98752.50;6285611;20;3562785;-57
2022/12/12 11:20:06;;;;;;;;;26.33;21.33;;;;;0.19;72.80;98754.38;6283259;20;3559790;-59
2022/12/12 11:22:38;;;;;;;;;25.00;17.33;;;;;0.29;73.05;98749.63;6283460;20;3559644;-57
2022/12/12 11:25:07;;;;;;;;;31.50;24.00;;;;;0.03;72.73;98767.25;6281022;20;2494114;-58
2022/12/12 11:27:39;;;;;;;;;32.50;23.50;;;;;0.02;73.32;98765.50;6280159;20;2846091;-56
2022/12/12 11:30:22;;;;;;;;;10.50;10.50;;;;;0.04;72.90;98771.59;6298997;20;1827546;-57
2022/12/12 11:32:54;;;;;;;;;32.00;21.00;;;;;0.09;72.57;98780.22;6311826;20;2500213;-58
2022/12/12 11:35:37;;;;;;;;;19.00;19.00;;;;;0.02;73.11;98773.41;6283655;20;2821107;-58
2022/12/12 11:38:34;;;;;;;;;24.00;23.00;;;;;-0.13;73.51;98780.09;6279793;20;2500720;-59
2022/12/12 11:41:10;;;;;;;;;27.33;22.00;;;;;-0.24;71.91;98782.19;6282762;20;3583580;-58
2022/12/12 11:43:46;;;;;;;;;17.33;12.00;;;;;-0.12;71.34;98780.94;6355356;20;1808597;-56
2022/12/12 11:46:18;;;;;;;;;17.60;16.00;;;;;-0.60;71.15;98778.97;6307357;20;2824403;-57
2022/12/12 11:48:46;;;;;;;;;17.00;11.50;;;;;-0.64;71.75;98772.91;6282253;20;2789984;-58
2022/12/12 11:51:40;;;;;;;;;27.33;21.33;;;;;-0.59;72.29;98778.03;6283445;20;3566932;-57
2022/12/12 11:54:33;;;;;;;;;20.67;19.00;;;;;-0.49;72.99;98779.50;6313114;20;3572162;-58
2022/12/12 11:57:18;;;;;;;;;29.50;22.00;;;;;-0.41;72.53;98766.91;6316253;20;2836775;-57
2022/12/12 12:00:16;;;;;;;;;25.00;23.33;;;;;-0.33;73.24;98788.63;6278317;20;3556668;-56
2022/12/12 12:03:15;;;;;;;;;28.50;24.00;;;;;-0.26;73.88;98786.66;6311266;20;2500347;-58
2022/12/12 12:06:11;;;;;;;;;40.00;31.50;;;;;-0.25;74.07;98785.75;6283180;20;2855484;-55